createdAt,value
2022-12-20T00:00:00.233Z,100656.59
2022-12-20T00:01:07.855Z,100646.91
2022-12-20T00:02:09.722Z,100640.28
2022-12-20T00:03:11.771Z,100631.06
2022-12-20T00:04:13.677Z,100638.22
2022-12-20T00:05:15.544Z,100642.56
2022-12-20T00:06:17.399Z,100631.22
2022-12-20T00:07:19.160Z,100640.88
2022-12-20T00:08:21.280Z,100632.31
2022-12-20T00:09:23.169Z,100626.25
2022-12-20T00:10:24.948Z,100628.53
2022-12-20T00:11:27.626Z,100631.31
2022-12-20T00:12:29.385Z,100630.34
2022-12-20T00:13:31.942Z,100628.66
2022-12-20T00:14:33.817Z,100615.16
2022-12-20T00:15:35.995Z,100627.84
2022-12-20T00:16:38.365Z,100623.34
2022-12-20T00:17:40.123Z,100615.34
2022-12-20T00:18:42.348Z,100575.16
2022-12-20T00:19:45.106Z,100614.78
2022-12-20T00:20:46.928Z,100597.63
2022-12-20T00:21:48.860Z,100611.72
2022-12-20T00:22:50.715Z,100609.19
2022-12-20T00:23:53.831Z,100619.00
2022-12-20T00:24:55.764Z,100604.69
2022-12-20T00:26:05.522Z,100600.34
2022-12-20T00:27:07.399Z,100598.53
2022-12-20T00:28:09.201Z,100579.56
2022-12-20T00:29:10.999Z,100585.63
2022-12-20T00:30:13.245Z,100593.22
2022-12-20T00:31:17.314Z,100596.84
2022-12-20T00:32:19.503Z,100589.69
2022-12-20T00:33:21.559Z,100593.34
2022-12-20T00:34:23.349Z,100596.84
2022-12-20T00:35:25.140Z,100588.00
2022-12-20T00:36:29.642Z,100586.31
2022-12-20T00:37:31.594Z,100590.66
2022-12-20T00:38:34.367Z,100592.34
2022-12-20T00:39:36.237Z,100590.66
2022-12-20T00:40:39.658Z,100584.63
2022-12-20T00:41:42.810Z,100583.66
2022-12-20T00:42:44.587Z,100586.31
2022-12-20T00:43:47.341Z,100577.91
2022-12-20T00:44:49.333Z,100596.97
2022-12-20T00:45:51.139Z,100587.28
2022-12-20T00:46:53.128Z,100589.97
2022-12-20T00:47:54.915Z,100544.28
2022-12-20T00:48:57.044Z,100592.63
2022-12-20T00:49:58.992Z,100584.63
2022-12-20T00:51:03.820Z,100583.94
2022-12-20T00:52:05.591Z,100571.84
2022-12-20T00:53:09.977Z,100578.34
2022-12-20T00:54:11.783Z,100576.66
2022-12-20T00:55:13.592Z,100576.66
2022-12-20T00:56:15.865Z,100577.63
2022-12-20T00:57:17.636Z,100577.50
2022-12-20T00:58:19.645Z,100575.94
2022-12-20T00:59:21.568Z,100575.66
2022-12-20T01:00:25.840Z,100564.84
2022-12-20T01:01:30.995Z,100576.66
2022-12-20T01:02:33.474Z,100574.69
2022-12-20T01:03:35.389Z,100580.00
2022-12-20T01:04:37.270Z,100576.66
2022-12-20T01:05:39.670Z,100573.97
2022-12-20T01:06:41.511Z,100573.00
2022-12-20T01:07:43.362Z,100570.50
2022-12-20T01:08:45.491Z,100564.47
2022-12-20T01:09:47.276Z,100557.69
2022-12-20T01:11:17.658Z,100571.75
2022-12-20T01:12:19.553Z,100578.66
2022-12-20T01:13:21.340Z,100578.06
2022-12-20T01:14:23.203Z,100572.88
2022-12-20T01:15:25.428Z,100572.03
2022-12-20T01:16:37.074Z,100575.66
2022-12-20T01:17:38.961Z,100570.22
2022-12-20T01:18:40.855Z,100571.31
2022-12-20T01:19:42.876Z,100556.00
2022-12-20T01:20:44.862Z,100573.16
2022-12-20T01:21:46.955Z,100562.63
2022-12-20T01:22:48.902Z,100549.25
2022-12-20T01:23:51.068Z,100554.63
2022-12-20T01:24:52.966Z,100564.31
2022-12-20T01:25:54.774Z,100550.28
2022-12-20T01:26:56.577Z,100544.91
2022-12-20T01:27:58.613Z,100557.31
2022-12-20T01:29:00.699Z,100545.50
2022-12-20T01:30:02.633Z,100564.31
2022-12-20T01:31:13.978Z,100564.31
2022-12-20T01:32:15.876Z,100560.56
2022-12-20T01:33:17.891Z,100560.66
2022-12-20T01:34:20.202Z,100558.00
2022-12-20T01:35:22.003Z,100560.66
2022-12-20T01:36:27.850Z,100556.31
2022-12-20T01:37:31.877Z,100561.53
2022-12-20T01:38:34.552Z,100550.56
2022-12-20T01:39:36.593Z,100541.84
2022-12-20T01:40:39.731Z,100556.31
2022-12-20T01:41:44.263Z,100553.66
2022-12-20T01:42:46.050Z,100555.34
2022-12-20T01:43:53.825Z,100555.50
2022-12-20T01:44:58.224Z,100548.34
2022-12-20T01:46:00.208Z,100550.03
2022-12-20T01:47:02.137Z,100558.97
2022-12-20T01:48:04.131Z,100547.19
2022-12-20T01:49:13.459Z,100549.31
2022-12-20T01:50:15.354Z,100538.78
2022-12-20T01:51:18.711Z,100545.66
2022-12-20T01:52:30.397Z,100549.03
2022-12-20T01:53:32.661Z,100540.94
2022-12-20T01:54:55.242Z,100538.28
2022-12-20T01:56:03.969Z,100538.81
2022-12-20T01:57:11.625Z,100538.13
2022-12-20T01:58:16.527Z,100535.44
2022-12-20T01:59:19.367Z,100530.28
2022-12-20T02:00:21.882Z,100531.25
2022-12-20T02:01:24.957Z,100529.69
2022-12-20T02:02:27.436Z,100529.69
2022-12-20T02:03:31.016Z,100520.03
2022-12-20T02:04:33.259Z,100525.34
2022-12-20T02:05:45.260Z,100523.66
2022-12-20T02:06:47.263Z,100525.06
2022-12-20T02:07:51.878Z,100501.22
2022-12-20T02:08:57.597Z,100526.31
2022-12-20T02:10:01.590Z,100508.22
2022-12-20T02:11:21.774Z,100524.09
2022-12-20T02:12:25.872Z,100520.47
2022-12-20T02:13:38.496Z,100521.44
2022-12-20T02:15:12.155Z,100514.84
2022-12-20T02:16:22.956Z,100498.00
2022-12-20T02:17:57.159Z,100522.56
2022-12-20T02:19:21.716Z,100518.09
2022-12-20T02:20:52.638Z,100520.34
2022-12-20T02:22:16.322Z,100509.13
2022-12-20T02:23:56.228Z,100468.72
2022-12-20T02:25:10.612Z,100508.88
2022-12-20T02:26:31.190Z,100494.00
2022-12-20T02:28:01.353Z,100497.78
2022-12-20T02:29:20.169Z,100488.94
2022-12-20T02:30:26.900Z,100495.38
2022-12-20T02:31:38.993Z,100491.16
2022-12-20T02:32:59.383Z,100493.72
2022-12-20T02:34:03.549Z,100487.66
2022-12-20T02:35:08.189Z,100479.97
2022-12-20T02:36:10.299Z,100461.13
2022-12-20T02:37:12.307Z,100477.41
2022-12-20T02:38:38.624Z,100473.78
2022-12-20T02:39:42.605Z,100468.59
2022-12-20T02:40:45.000Z,100471.13
2022-12-20T02:42:11.427Z,100453.03
2022-12-20T02:43:32.359Z,100463.81
2022-12-20T02:44:56.703Z,100463.72
2022-12-20T02:46:01.926Z,100458.22
2022-12-20T02:47:07.706Z,100461.16
2022-12-20T02:48:11.603Z,100463.97
2022-12-20T02:49:18.400Z,100451.78
2022-12-20T02:50:44.207Z,100445.75
2022-12-20T02:51:49.187Z,100457.53
2022-12-20T02:52:52.144Z,100451.50
2022-12-20T02:53:54.338Z,100448.97
2022-12-20T02:54:56.546Z,100450.91
2022-12-20T02:56:14.642Z,100437.03
2022-12-20T02:57:38.296Z,100421.34
2022-12-20T02:58:57.890Z,100438.59
2022-12-20T03:00:08.805Z,100440.72
2022-12-20T03:01:39.453Z,100443.66
2022-12-20T03:03:01.873Z,100434.53
2022-12-20T03:04:04.930Z,100434.25
2022-12-20T03:05:07.443Z,100431.88
2022-12-20T03:06:09.270Z,100440.13
2022-12-20T03:07:13.296Z,100433.25
2022-12-20T03:08:16.224Z,100426.25
2022-12-20T03:09:18.297Z,100435.09
2022-12-20T03:10:21.105Z,100416.84
2022-12-20T03:11:23.194Z,100433.41
2022-12-20T03:12:24.993Z,100425.53
2022-12-20T03:13:26.883Z,100428.09
2022-12-20T03:14:40.926Z,100426.13
2022-12-20T03:15:45.010Z,100419.94
2022-12-20T03:16:47.312Z,100422.59
2022-12-20T03:17:49.284Z,100424.44
2022-12-20T03:18:51.442Z,100421.78
2022-12-20T03:19:53.402Z,100419.13
2022-12-20T03:20:55.304Z,100409.84
2022-12-20T03:21:57.354Z,100412.09
2022-12-20T03:22:59.708Z,100396.69
2022-12-20T03:24:01.970Z,100403.13
2022-12-20T03:25:04.707Z,100399.78
2022-12-20T03:26:07.898Z,100397.81
2022-12-20T03:27:16.780Z,100399.50
2022-12-20T03:28:18.616Z,100394.16
2022-12-20T03:29:20.692Z,100390.50
2022-12-20T03:30:22.944Z,100400.59
2022-12-20T03:31:25.426Z,100407.47
2022-12-20T03:32:29.551Z,100397.81
2022-12-20T03:33:31.351Z,100388.00
2022-12-20T03:34:36.373Z,100391.50
2022-12-20T03:35:38.815Z,100393.19
2022-12-20T03:36:40.608Z,100388.25
2022-12-20T03:37:42.463Z,100371.03
2022-12-20T03:38:45.319Z,100384.50
2022-12-20T03:39:47.898Z,100379.19
2022-12-20T03:40:49.700Z,100387.16
2022-12-20T03:41:55.347Z,100358.44
2022-12-20T03:42:57.233Z,100354.09
2022-12-20T03:43:59.123Z,100363.19
2022-12-20T03:45:01.196Z,100358.84
2022-12-20T03:46:05.336Z,100365.88
2022-12-20T03:47:10.214Z,100359.56
2022-12-20T03:48:12.614Z,100351.69
2022-12-20T03:49:14.592Z,100357.72
2022-12-20T03:50:21.613Z,100355.91
2022-12-20T03:51:23.738Z,100349.72
2022-12-20T03:52:25.795Z,100351.56
2022-12-20T03:53:27.750Z,100340.63
2022-12-20T03:54:29.639Z,100345.38
2022-12-20T03:55:47.289Z,100356.63
2022-12-20T03:56:50.503Z,100340.50
2022-12-20T03:57:52.905Z,100354.94
2022-12-20T03:59:07.796Z,100345.84
2022-12-20T04:00:10.133Z,100346.94
2022-12-20T04:01:24.560Z,100338.97
2022-12-20T04:02:27.312Z,100328.59
2022-12-20T04:03:30.236Z,100331.81
2022-12-20T04:04:32.404Z,100331.38
2022-12-20T04:05:34.286Z,100338.97
2022-12-20T04:06:36.165Z,100330.28
2022-12-20T04:07:38.723Z,100327.88
2022-12-20T04:08:40.625Z,100332.06
2022-12-20T04:09:43.656Z,100330.28
2022-12-20T04:11:06.809Z,100321.44
2022-12-20T04:12:11.245Z,100321.72
2022-12-20T04:13:14.389Z,100327.31
2022-12-20T04:14:16.710Z,100317.66
2022-12-20T04:15:19.495Z,100316.97
2022-12-20T04:16:26.200Z,100308.97
2022-12-20T04:17:29.585Z,100311.63
2022-12-20T04:18:31.555Z,100316.97
2022-12-20T04:19:35.245Z,100313.44
2022-12-20T04:20:38.684Z,100307.28
2022-12-20T04:21:50.028Z,100310.66
2022-12-20T04:22:54.058Z,100303.63
2022-12-20T04:23:56.575Z,100287.53
2022-12-20T04:25:00.574Z,100304.63
2022-12-20T04:26:11.196Z,100297.47
2022-12-20T04:27:13.235Z,100292.13
2022-12-20T04:28:15.114Z,100286.97
2022-12-20T04:29:18.163Z,100287.94
2022-12-20T04:30:21.243Z,100281.66
2022-12-20T04:31:24.343Z,100280.78
2022-12-20T04:32:28.098Z,100277.03
2022-12-20T04:33:30.358Z,100279.81
2022-12-20T04:34:32.564Z,100270.84
2022-12-20T04:35:34.829Z,100270.84
2022-12-20T04:36:36.714Z,100275.34
2022-12-20T04:37:42.592Z,100264.69
2022-12-20T04:38:44.573Z,100257.09
2022-12-20T04:39:46.627Z,100257.53
2022-12-20T04:41:23.734Z,100257.53
2022-12-20T04:42:36.096Z,100218.59
2022-12-20T04:43:38.332Z,100253.47
2022-12-20T04:44:40.940Z,100254.44
2022-12-20T04:45:47.423Z,100247.59
2022-12-20T04:46:49.946Z,100252.94
2022-12-20T04:47:52.603Z,100257.28
2022-12-20T04:49:00.412Z,100254.63
2022-12-20T04:50:04.541Z,100256.41
2022-12-20T04:51:06.334Z,100251.22
2022-12-20T04:52:26.456Z,100253.75
2022-12-20T04:53:51.473Z,100247.31
2022-12-20T04:55:19.238Z,100237.09
2022-12-20T04:56:27.857Z,100247.72
2022-12-20T04:57:32.854Z,100248.72
2022-12-20T04:58:35.620Z,100234.41
2022-12-20T04:59:40.288Z,100244.50
2022-12-20T05:00:42.670Z,100237.50
2022-12-20T05:01:57.325Z,100234.69
2022-12-20T05:03:28.180Z,100234.13
2022-12-20T05:04:36.965Z,100235.41
2022-12-20T05:05:39.504Z,100233.56
2022-12-20T05:06:41.284Z,100230.38
2022-12-20T05:07:43.369Z,100207.38
2022-12-20T05:08:45.416Z,100229.50
2022-12-20T05:09:47.258Z,100217.59
2022-12-20T05:10:49.099Z,100219.16
2022-12-20T05:11:51.160Z,100228.81
2022-12-20T05:12:52.992Z,100217.34
2022-12-20T05:14:15.012Z,100219.56
2022-12-20T05:15:16.947Z,100223.19
2022-12-20T05:16:19.674Z,100212.00
2022-12-20T05:17:21.923Z,100217.06
2022-12-20T05:18:25.127Z,100209.19
2022-12-20T05:19:34.603Z,100212.53
2022-12-20T05:20:37.268Z,100201.34
2022-12-20T05:21:58.117Z,100213.53
2022-12-20T05:23:18.619Z,100214.09
2022-12-20T05:24:42.758Z,100213.66
2022-12-20T05:26:17.619Z,100212.53
2022-12-20T05:27:19.548Z,100200.78
2022-12-20T05:28:21.767Z,100215.78
2022-12-20T05:29:23.648Z,100211.56
2022-12-20T05:30:26.053Z,100209.59
2022-12-20T05:31:28.721Z,100221.53
2022-12-20T05:32:31.848Z,100216.19
2022-12-20T05:33:34.486Z,100211.56
2022-12-20T05:34:37.795Z,100215.38
2022-12-20T05:35:39.753Z,100221.53
2022-12-20T05:36:46.073Z,100211.28
2022-12-20T05:37:47.889Z,100222.38
2022-12-20T05:39:01.770Z,100210.88
2022-12-20T05:40:06.487Z,100215.09
2022-12-20T05:41:08.795Z,100204.84
2022-12-20T05:42:10.908Z,100204.16
2022-12-20T05:43:12.820Z,100215.22
2022-12-20T05:44:22.232Z,100209.88
2022-12-20T05:45:27.228Z,100200.50
2022-12-20T05:46:35.835Z,100213.25
2022-12-20T05:47:43.252Z,100214.91
2022-12-20T05:48:46.800Z,100201.59
2022-12-20T05:49:49.344Z,100208.06
2022-12-20T05:50:51.121Z,100208.91
2022-12-20T05:52:02.792Z,100210.59
2022-12-20T05:53:11.301Z,100198.25
2022-12-20T05:54:16.569Z,100198.81
2022-12-20T05:55:32.049Z,100177.94
2022-12-20T05:56:34.584Z,100189.97
2022-12-20T05:57:36.783Z,100190.13
2022-12-20T05:58:38.841Z,100186.63
2022-12-20T05:59:40.990Z,100191.25
2022-12-20T06:00:49.997Z,100191.94
2022-12-20T06:01:51.852Z,100191.13
2022-12-20T06:02:53.849Z,100187.19
2022-12-20T06:03:56.017Z,100192.94
2022-12-20T06:04:59.235Z,100192.94
2022-12-20T06:06:01.176Z,100187.59
2022-12-20T06:07:06.699Z,100182.56
2022-12-20T06:08:08.677Z,100188.28
2022-12-20T06:09:10.521Z,100182.84
2022-12-20T06:10:23.543Z,100179.91
2022-12-20T06:11:31.485Z,100181.41
2022-12-20T06:12:38.336Z,100172.03
2022-12-20T06:13:40.160Z,100177.63
2022-12-20T06:14:43.776Z,100173.84
2022-12-20T06:15:47.907Z,100176.41
2022-12-20T06:16:49.962Z,100177.94
2022-12-20T06:17:53.831Z,100169.66
2022-12-20T06:18:56.861Z,100172.03
2022-12-20T06:19:58.764Z,100177.06
2022-12-20T06:21:02.055Z,100166.13
2022-12-20T06:22:03.951Z,100164.16
2022-12-20T06:23:22.662Z,100165.94
2022-12-20T06:24:44.459Z,100164.53
2022-12-20T06:25:50.820Z,100161.56
2022-12-20T06:26:53.647Z,100156.06
2022-12-20T06:27:56.535Z,100134.66
2022-12-20T06:29:02.209Z,100150.16
2022-12-20T06:30:19.392Z,100147.75
2022-12-20T06:31:39.535Z,100141.69
2022-12-20T06:32:41.938Z,100134.50
2022-12-20T06:33:45.238Z,100131.53
2022-12-20T06:34:51.161Z,100134.06
2022-12-20T06:35:53.385Z,100133.78
2022-12-20T06:36:58.425Z,100121.56
2022-12-20T06:38:03.718Z,100138.50
2022-12-20T06:39:10.197Z,100129.22
2022-12-20T06:40:19.958Z,100129.91
2022-12-20T06:41:21.813Z,100118.84
2022-12-20T06:42:24.377Z,100118.56
2022-12-20T06:43:26.283Z,100124.28
2022-12-20T06:44:28.090Z,100135.06
2022-12-20T06:45:32.547Z,100126.06
2022-12-20T06:46:36.741Z,100120.25
2022-12-20T06:47:39.430Z,100107.59
2022-12-20T06:48:41.292Z,100109.13
2022-12-20T06:49:45.231Z,100084.88
2022-12-20T06:50:56.266Z,100100.56
2022-12-20T06:51:59.775Z,100108.25
2022-12-20T06:53:18.360Z,100093.66
2022-12-20T06:54:20.255Z,100106.81
2022-12-20T06:55:22.253Z,100107.63
2022-12-20T06:56:25.480Z,100104.84
2022-12-20T06:57:27.957Z,100105.66
2022-12-20T06:58:30.297Z,100101.19
2022-12-20T06:59:32.390Z,100102.31
2022-12-20T07:00:34.292Z,100104.53
2022-12-20T07:01:36.254Z,100100.88
2022-12-20T07:02:38.756Z,100100.69
2022-12-20T07:03:40.698Z,100106.72
2022-12-20T07:04:42.582Z,100096.91
2022-12-20T07:05:44.393Z,100089.72
2022-12-20T07:06:46.198Z,100094.91
2022-12-20T07:07:47.976Z,100095.72
2022-12-20T07:08:49.982Z,100093.06
2022-12-20T07:09:51.935Z,100086.72
2022-12-20T07:10:54.689Z,100089.41
2022-12-20T07:11:57.745Z,100090.09
2022-12-20T07:12:59.524Z,100088.28
2022-12-20T07:14:01.365Z,100086.47
2022-12-20T07:15:03.278Z,100082.78
2022-12-20T07:16:06.429Z,100088.97
2022-12-20T07:17:08.539Z,100084.06
2022-12-20T07:18:10.659Z,100090.63
2022-12-20T07:19:14.107Z,100079.41
2022-12-20T07:20:16.770Z,100092.31
2022-12-20T07:21:19.786Z,100077.28
2022-12-20T07:22:21.708Z,100083.31
2022-12-20T07:23:23.516Z,100069.03
2022-12-20T07:24:25.376Z,100077.97
2022-12-20T07:25:28.509Z,100085.97
2022-12-20T07:26:30.305Z,100085.84
2022-12-20T07:27:32.204Z,100083.31
2022-12-20T07:28:34.211Z,100075.16
2022-12-20T07:29:36.436Z,100085.66
2022-12-20T07:30:38.757Z,100067.22
2022-12-20T07:31:40.660Z,100082.84
2022-12-20T07:32:42.763Z,100075.16
2022-12-20T07:33:45.350Z,100074.31
2022-12-20T07:34:47.192Z,100072.84
2022-12-20T07:35:54.253Z,100070.34
2022-12-20T07:36:56.639Z,100078.72
2022-12-20T07:37:58.436Z,100079.56
2022-12-20T07:39:00.321Z,100075.03
2022-12-20T07:40:02.480Z,100074.03
2022-12-20T07:41:15.244Z,100069.56
2022-12-20T07:42:17.036Z,100068.25
2022-12-20T07:43:23.665Z,100056.22
2022-12-20T07:44:25.698Z,100047.53
2022-12-20T07:45:27.711Z,100059.41
2022-12-20T07:46:30.037Z,100045.69
2022-12-20T07:47:31.928Z,100036.00
2022-12-20T07:48:34.353Z,100039.53
2022-12-20T07:49:36.791Z,100046.91
2022-12-20T07:50:38.873Z,100043.22
2022-12-20T07:51:45.831Z,100048.56
2022-12-20T07:52:49.730Z,100040.88
2022-12-20T07:54:06.513Z,100045.44
2022-12-20T07:55:09.328Z,100043.47
2022-12-20T07:56:13.024Z,100025.00
2022-12-20T07:57:23.460Z,100029.22
2022-12-20T07:58:26.338Z,100031.09
2022-12-20T07:59:51.367Z,100034.13
2022-12-20T08:00:53.434Z,100036.81
2022-12-20T08:02:02.374Z,100036.13
2022-12-20T08:03:12.728Z,100034.28
2022-12-20T08:04:19.199Z,100029.94
2022-12-20T08:05:21.899Z,100024.59
2022-12-20T08:06:23.837Z,100025.59
2022-12-20T08:07:29.767Z,100024.91
2022-12-20T08:08:38.780Z,100026.59
2022-12-20T08:09:44.292Z,100015.91
2022-12-20T08:10:46.897Z,100021.25
2022-12-20T08:11:50.395Z,100017.56
2022-12-20T08:12:52.433Z,100017.75
2022-12-20T08:13:57.995Z,100016.22
2022-12-20T08:15:00.608Z,100024.09
2022-12-20T08:16:02.407Z,100027.56
2022-12-20T08:17:04.392Z,100020.56
2022-12-20T08:18:06.442Z,100020.88
2022-12-20T08:19:08.236Z,100024.22
2022-12-20T08:20:10.543Z,100016.69
2022-12-20T08:21:14.778Z,100019.22
2022-12-20T08:22:16.614Z,100012.34
2022-12-20T08:23:19.588Z,100026.75
2022-12-20T08:24:21.472Z,100021.56
2022-12-20T08:25:23.511Z,100021.56
2022-12-20T08:26:25.309Z,100023.22
2022-12-20T08:27:27.122Z,100016.22
2022-12-20T08:28:29.045Z,100017.91
2022-12-20T08:29:30.839Z,100015.41
2022-12-20T08:30:32.727Z,100019.56
2022-12-20T08:31:49.490Z,99989.94
2022-12-20T08:32:52.117Z,100013.91
2022-12-20T08:33:55.277Z,100014.22
2022-12-20T08:34:57.067Z,99998.22
2022-12-20T08:36:04.992Z,100008.06
2022-12-20T08:37:14.344Z,100000.72
2022-12-20T08:38:16.718Z,100003.22
2022-12-20T08:39:18.535Z,99998.88
2022-12-20T08:40:21.082Z,99981.97
2022-12-20T08:41:23.116Z,99990.19
2022-12-20T08:42:24.924Z,99989.38
2022-12-20T08:43:26.753Z,99993.72
2022-12-20T08:44:28.546Z,99977.81
2022-12-20T08:45:30.334Z,99992.88
2022-12-20T08:46:32.371Z,99984.19
2022-12-20T08:47:34.442Z,99986.72
2022-12-20T08:48:36.923Z,99992.03
2022-12-20T08:49:43.999Z,99984.84
2022-12-20T08:50:55.869Z,99985.53
2022-12-20T08:51:57.857Z,99978.53
2022-12-20T08:52:59.616Z,99974.69
2022-12-20T08:54:02.708Z,99978.16
2022-12-20T08:55:05.714Z,99987.22
2022-12-20T08:56:16.230Z,99979.19
2022-12-20T08:57:18.035Z,99974.53
2022-12-20T08:58:21.327Z,99972.88
2022-12-20T08:59:23.179Z,99977.22
2022-12-20T09:00:25.171Z,99970.19
2022-12-20T09:01:27.285Z,99972.03
2022-12-20T09:02:29.362Z,99973.88
2022-12-20T09:03:34.053Z,99971.19
2022-12-20T09:04:35.936Z,99964.72
2022-12-20T09:05:44.838Z,99958.53
2022-12-20T09:06:46.917Z,99960.19
2022-12-20T09:07:48.735Z,99954.84
2022-12-20T09:08:51.116Z,99955.69
2022-12-20T09:09:52.942Z,99952.19
2022-12-20T09:10:54.786Z,99940.81
2022-12-20T09:11:57.404Z,99947.69
2022-12-20T09:12:59.168Z,99946.84
2022-12-20T09:14:01.072Z,99934.13
2022-12-20T09:15:03.073Z,99931.31
2022-12-20T09:16:06.745Z,99931.81
2022-12-20T09:17:08.616Z,99929.81
2022-12-20T09:18:10.406Z,99917.47
2022-12-20T09:19:13.903Z,99919.16
2022-12-20T09:20:15.749Z,99928.16
2022-12-20T09:21:18.892Z,99928.16
2022-12-20T09:22:20.879Z,99921.81
2022-12-20T09:23:22.718Z,99922.81
2022-12-20T09:24:24.484Z,99929.81
2022-12-20T09:25:27.346Z,99929.81
2022-12-20T09:26:30.872Z,99927.78
2022-12-20T09:27:32.803Z,99932.50
2022-12-20T09:28:35.328Z,99935.16
2022-12-20T09:29:37.177Z,99931.50
2022-12-20T09:30:38.990Z,99923.97
2022-12-20T09:31:41.417Z,99945.84
2022-12-20T09:32:43.291Z,99929.00
2022-12-20T09:33:45.628Z,99922.81
2022-12-20T09:34:48.404Z,99926.16
2022-12-20T09:35:50.220Z,99932.34
2022-12-20T09:36:51.993Z,99930.69
2022-12-20T09:37:53.909Z,99925.66
2022-12-20T09:38:56.425Z,99916.31
2022-12-20T09:39:58.732Z,99923.81
2022-12-20T09:41:05.556Z,99929.69
2022-12-20T09:42:09.422Z,99918.81
2022-12-20T09:43:12.280Z,99913.47
2022-12-20T09:44:31.119Z,99915.16
2022-12-20T09:45:37.367Z,99910.47
2022-12-20T09:46:41.241Z,99908.13
2022-12-20T09:47:43.428Z,99907.81
2022-12-20T09:48:46.867Z,99907.63
2022-12-20T09:49:54.176Z,99918.81
2022-12-20T09:51:05.805Z,99920.34
2022-12-20T09:52:35.359Z,99914.81
2022-12-20T09:53:56.025Z,99908.34
2022-12-20T09:55:19.521Z,99915.22
2022-12-20T09:56:28.242Z,99908.88
2022-12-20T09:57:54.415Z,99904.69
2022-12-20T09:59:10.735Z,99900.00
2022-12-20T10:00:17.543Z,99894.84
2022-12-20T10:01:26.524Z,99891.50
2022-12-20T10:03:54.254Z,99885.84
2022-12-20T10:04:56.807Z,99878.16
2022-12-20T10:06:31.125Z,99880.50
2022-12-20T10:07:46.986Z,99871.81
2022-12-20T10:08:57.207Z,99870.63
2022-12-20T10:10:23.999Z,99874.81
2022-12-20T10:11:58.119Z,99874.16
2022-12-20T10:13:05.782Z,99883.50
2022-12-20T10:14:25.808Z,99873.81
2022-12-20T10:15:33.408Z,99882.16
2022-12-20T10:16:46.242Z,99875.28
2022-12-20T10:18:00.004Z,99876.97
2022-12-20T10:19:50.149Z,99870.47
2022-12-20T10:21:00.980Z,99869.97
2022-12-20T10:22:14.355Z,99875.66
2022-12-20T10:24:02.819Z,99864.47
2022-12-20T10:25:23.096Z,99859.81
2022-12-20T10:26:24.877Z,99868.81
2022-12-20T10:27:26.732Z,99852.94
2022-12-20T10:28:31.873Z,99858.13
2022-12-20T10:29:33.739Z,99862.63
2022-12-20T10:30:35.652Z,99861.13
2022-12-20T10:31:38.974Z,99866.47
2022-12-20T10:32:42.332Z,99860.28
2022-12-20T10:33:45.311Z,99859.28
2022-12-20T10:34:56.779Z,99856.41
2022-12-20T10:36:17.886Z,99862.13
2022-12-20T10:37:19.839Z,99856.81
2022-12-20T10:38:22.889Z,99856.59
2022-12-20T10:39:44.178Z,99857.13
2022-12-20T10:41:20.819Z,99855.63
2022-12-20T10:42:27.699Z,99861.47
2022-12-20T10:43:44.306Z,99853.81
2022-12-20T10:44:46.193Z,99864.16
2022-12-20T10:46:01.886Z,99854.81
2022-12-20T10:47:04.028Z,99860.63
2022-12-20T10:48:24.214Z,99852.94
2022-12-20T10:49:41.243Z,99852.47
2022-12-20T10:50:43.192Z,99847.13
2022-12-20T10:51:52.946Z,99842.94
2022-12-20T10:53:09.757Z,99841.78
2022-12-20T10:54:37.372Z,99845.13
2022-12-20T10:55:42.881Z,99842.47
2022-12-20T10:56:58.741Z,99832.78
2022-12-20T10:58:17.597Z,99829.91
2022-12-20T10:59:19.407Z,99841.47
2022-12-20T11:00:31.460Z,99837.25
2022-12-20T11:01:37.793Z,99834.78
2022-12-20T11:02:42.621Z,99822.41
2022-12-20T11:03:58.525Z,99819.56
2022-12-20T11:05:09.913Z,99826.44
2022-12-20T11:06:17.936Z,99828.25
2022-12-20T11:07:26.339Z,99820.41
2022-12-20T11:08:45.051Z,99820.41
2022-12-20T11:10:04.129Z,99814.22
2022-12-20T11:11:24.700Z,99825.94
2022-12-20T11:12:26.624Z,99810.56
2022-12-20T11:13:29.462Z,99818.91
2022-12-20T11:14:38.743Z,99793.00
2022-12-20T11:15:49.267Z,99827.09
2022-12-20T11:16:53.648Z,99813.41
2022-12-20T11:18:36.678Z,99824.75
2022-12-20T11:19:47.204Z,99825.28
2022-12-20T11:21:04.401Z,99827.97
2022-12-20T11:22:13.457Z,99822.44
2022-12-20T11:23:35.895Z,99823.28
2022-12-20T11:25:07.202Z,99817.09
2022-12-20T11:26:39.155Z,99825.47
2022-12-20T11:28:06.806Z,99825.47
2022-12-20T11:29:25.977Z,99824.66
2022-12-20T11:31:09.226Z,99823.47
2022-12-20T11:32:21.299Z,99824.47
2022-12-20T11:33:38.638Z,99823.81
2022-12-20T11:35:02.369Z,99818.09
2022-12-20T11:36:13.420Z,99813.06
2022-12-20T11:37:24.179Z,99818.75
2022-12-20T11:38:46.477Z,99818.94
2022-12-20T11:40:15.395Z,99818.47
2022-12-20T11:41:20.206Z,99816.09
2022-12-20T11:42:40.735Z,99822.44
2022-12-20T11:44:24.540Z,99823.28
2022-12-20T11:46:00.352Z,99816.31
2022-12-20T11:47:43.509Z,99783.69
2022-12-20T11:49:12.670Z,99812.44
2022-12-20T11:50:20.777Z,99814.78
2022-12-20T11:51:46.895Z,99814.78
2022-12-20T11:53:20.100Z,99807.06
2022-12-20T11:54:29.540Z,99795.91
2022-12-20T11:55:37.970Z,99783.34
2022-12-20T11:56:45.173Z,99796.56
2022-12-20T11:59:29.763Z,99808.06
2022-12-20T12:00:36.013Z,99798.72
2022-12-20T12:01:43.127Z,99799.91
2022-12-20T12:02:58.815Z,99795.72
2022-12-20T12:04:09.782Z,99790.56
2022-12-20T12:05:21.848Z,99788.69
2022-12-20T12:06:28.958Z,99780.34
2022-12-20T12:07:40.490Z,99787.03
2022-12-20T12:08:50.461Z,99782.53
2022-12-20T12:10:17.260Z,99787.41
2022-12-20T12:13:25.082Z,99786.91
2022-12-20T12:14:36.167Z,99786.91
2022-12-20T12:15:57.727Z,99779.06
2022-12-20T12:17:08.357Z,99780.06
2022-12-20T12:18:19.648Z,99778.38
2022-12-20T12:19:24.616Z,99776.00
2022-12-20T12:20:45.496Z,99764.00
2022-12-20T12:21:56.322Z,99776.88
2022-12-20T12:23:21.269Z,99781.72
2022-12-20T12:24:51.749Z,99780.38
2022-12-20T12:25:53.866Z,99775.72
2022-12-20T12:26:56.287Z,99774.72
2022-12-20T12:27:58.801Z,99774.03
2022-12-20T12:29:10.365Z,99769.00
2022-12-20T12:30:14.768Z,99771.53
2022-12-20T12:31:22.582Z,99770.84
2022-12-20T12:32:31.305Z,99768.19
2022-12-20T12:33:49.971Z,99758.31
2022-12-20T12:35:14.002Z,99761.34
2022-12-20T12:36:50.909Z,99763.88
2022-12-20T12:38:04.595Z,99757.34
2022-12-20T12:39:29.433Z,99759.34
2022-12-20T12:40:41.145Z,99749.50
2022-12-20T12:42:20.538Z,99759.84
2022-12-20T12:43:22.253Z,99766.03
2022-12-20T12:44:40.108Z,99761.19
2022-12-20T12:45:48.121Z,99759.69
2022-12-20T12:46:59.280Z,99759.69
2022-12-20T12:48:13.686Z,99758.31
2022-12-20T12:49:22.856Z,99769.53
2022-12-20T12:50:29.985Z,99762.00
2022-12-20T12:51:35.083Z,99749.63
2022-12-20T12:52:52.070Z,99760.69
2022-12-20T12:54:02.687Z,99752.31
2022-12-20T12:55:24.632Z,99770.38
2022-12-20T12:56:43.076Z,99765.69
2022-12-20T12:57:57.525Z,99750.16
2022-12-20T12:59:09.672Z,99757.69